Insula Oya 2 — FUKI — position and weather

sailwx.info

Track history (hours):
 
Tides and Currents Weather Stations Pressure Air Temp Water Temp Dewpoint Dewpoint Depression Visibility Wind Speed Wind Dir Waves Ship Positions

Insula Oya 2

Last reported at 2017-May-24 04:00 UTC. Time now 2017-May-24 04:09 UTC.
Position N 46°51' W 002°13'.

Length 50 m; draft 2.4 m.

Type: Passenger vessel. MMSI: 227004900.

Date/timePositionNaut miles runAvg speedWind from/ knotsBaromVisibWave heightAir tempDewpointWater temp
2017-May-24 04:00N 46°51' W 002°13'713.1
2017-May-24 03:30N 46°46' W 002°19'3 0.3
2017-May-23 18:05N 46°44' W 002°21'0 0.1
2017-May-23 18:00N 46°44' W 002°21'0 0.0
2017-May-23 17:30N 46°44' W 002°21'0 0.0
2017-May-23 17:00N 46°44' W 002°21'0 0.0
2017-May-23 16:30N 46°44' W 002°21'0 0.0
2017-May-23 15:59N 46°44' W 002°21'0 0.0
2017-May-23 15:28N 46°44' W 002°21'5 9.9
2017-May-23 15:00N 46°47' W 002°17'813.6
2017-May-23 14:27N 46°54' W 002°11'2 1.7
2017-May-23 13:30N 46°54' W 002°08'0 0.0
2017-May-23 13:00N 46°54' W 002°08'0 0.0
2017-May-23 12:30N 46°54' W 002°08'5 0.5
2017-May-23 02:59N 46°50' W 002°14'510.6
2017-May-23 02:30N 46°54' W 002°08'0 0.0
2017-May-23 02:00N 46°54' W 002°08'0 0.0
2017-May-23 01:30N 46°54' W 002°08'0 0.0
2017-May-23 01:00N 46°54' W 002°08'0 0.0
2017-May-23 00:30N 46°54' W 002°08'0 0.0
2017-May-23 00:00N 46°54' W 002°08'0 0.0
2017-May-22 23:30N 46°54' W 002°08'0 0.0
2017-May-22 23:00N 46°54' W 002°08'0 0.0
2017-May-22 22:30N 46°54' W 002°08'0 0.0
2017-May-22 22:00N 46°54' W 002°08'0 0.0
2017-May-22 21:29N 46°54' W 002°08'0 0.0
2017-May-22 21:00N 46°54' W 002°08'0 0.0
2017-May-22 20:30N 46°54' W 002°08'0 0.0
2017-May-22 20:00N 46°54' W 002°08'0 0.0
2017-May-22 19:30N 46°54' W 002°08'0 0.0
2017-May-22 19:01N 46°54' W 002°08'0 0.0
2017-May-22 18:30N 46°54' W 002°08'0 0.0
2017-May-22 18:00N 46°54' W 002°08'0 0.0
2017-May-22 17:30N 46°54' W 002°08'0 0.0
2017-May-22 16:59N 46°54' W 002°08'0 0.0
2017-May-22 16:28N 46°54' W 002°08'0 0.0
2017-May-22 16:00N 46°54' W 002°08'0 0.0
2017-May-22 15:29N 46°54' W 002°08'0 0.0
2017-May-22 15:00N 46°54' W 002°08'0 0.0
2017-May-22 14:29N 46°54' W 002°08'13 0.5
2017-May-21 11:06N 46°44' W 002°21'9 0.3
2017-May-20 10:03N 46°51' W 002°14'113.3
2017-May-20 09:57N 46°52' W 002°13'3 8.0
2017-May-20 09:30N 46°54' W 002°08'0 0.0
2017-May-20 09:00N 46°54' W 002°08'0 0.0
2017-May-20 08:30N 46°54' W 002°08'0 0.0
2017-May-20 08:00N 46°54' W 002°08'0 0.0
2017-May-20 07:30N 46°54' W 002°08'0 0.0
2017-May-20 07:00N 46°54' W 002°08'0 0.0
2017-May-20 06:30N 46°54' W 002°08'0 0.0
2017-May-20 06:00N 46°54' W 002°08'0 0.0
2017-May-20 05:30N 46°54' W 002°08'0 0.0
2017-May-20 05:00N 46°54' W 002°08'0 0.0
2017-May-20 04:30N 46°54' W 002°08'0 0.0
2017-May-20 04:00N 46°54' W 002°08'0 0.0
2017-May-20 03:30N 46°54' W 002°08'0 0.0
2017-May-20 03:00N 46°54' W 002°08'0 0.0
2017-May-20 02:30N 46°54' W 002°08'0 0.0
2017-May-20 02:00N 46°54' W 002°08'0 0.0
2017-May-20 01:30N 46°54' W 002°08'0 0.0
2017-May-20 01:00N 46°54' W 002°08'0 0.0
2017-May-20 00:30N 46°54' W 002°08'0 0.0
2017-May-20 00:00N 46°54' W 002°08'0 0.0
2017-May-19 23:30N 46°54' W 002°08'0 0.0
2017-May-19 23:00N 46°54' W 002°08'0 0.0
2017-May-19 22:30N 46°54' W 002°08'0 0.0
2017-May-19 22:00N 46°54' W 002°08'0 0.0
2017-May-19 21:30N 46°54' W 002°08'0 0.0
2017-May-19 21:00N 46°54' W 002°08'0 0.0
2017-May-19 20:30N 46°54' W 002°08'0 0.0
2017-May-19 20:00N 46°54' W 002°08'0 0.0
2017-May-19 19:30N 46°54' W 002°08'0 0.0
2017-May-19 19:00N 46°54' W 002°08'0 0.0
2017-May-19 18:30N 46°54' W 002°08'0 0.0
2017-May-19 18:00N 46°54' W 002°08'0 0.0
2017-May-19 17:30N 46°54' W 002°08'0 0.0
2017-May-19 17:00N 46°54' W 002°08'0 0.0
2017-May-19 16:30N 46°54' W 002°08'0 0.0
2017-May-19 16:00N 46°54' W 002°08'0 0.0
2017-May-19 15:30N 46°54' W 002°08'0 0.0
2017-May-19 15:00N 46°54' W 002°08'0 0.0
2017-May-19 14:29N 46°54' W 002°08'0 0.0
2017-May-19 13:30N 46°54' W 002°08'0 0.0
2017-May-19 13:00N 46°54' W 002°08'0 0.0
2017-May-19 12:30N 46°54' W 002°08'0 0.0
2017-May-19 11:58N 46°54' W 002°08'2 4.2
2017-May-19 11:28N 46°53' W 002°11'0 0.0
2017-May-19 07:37N 46°53' W 002°11'1 9.5
2017-May-19 07:30N 46°54' W 002°10'1 2.4
2017-May-19 07:00N 46°54' W 002°08'0 0.0
2017-May-19 06:30N 46°54' W 002°08'0 0.0
2017-May-19 06:00N 46°54' W 002°08'0 0.0
2017-May-19 05:30N 46°54' W 002°08'0 0.0
2017-May-19 05:00N 46°54' W 002°08'0 0.0
2017-May-19 04:30N 46°54' W 002°08'0 0.0
2017-May-19 04:00N 46°54' W 002°08'0 0.0
2017-May-19 03:30N 46°54' W 002°08'0 0.0
2017-May-19 03:00N 46°54' W 002°08'0 0.0
2017-May-19 02:30N 46°54' W 002°08'0 0.0
2017-May-19 02:00N 46°54' W 002°08'0 0.0
2017-May-19 01:30N 46°54' W 002°08'0 0.0
2017-May-19 01:00N 46°54' W 002°08'0 0.0
2017-May-19 00:30N 46°54' W 002°08'0 0.0
2017-May-19 00:00N 46°54' W 002°08'0 0.0
2017-May-18 23:30N 46°54' W 002°08'0 0.0
2017-May-18 23:00N 46°54' W 002°08'0 0.0
2017-May-18 22:30N 46°54' W 002°08'0 0.0
2017-May-18 22:00N 46°54' W 002°08'0 0.0
2017-May-18 21:30N 46°54' W 002°08'0 0.0
2017-May-18 21:00N 46°54' W 002°08'0 0.0
2017-May-18 20:30N 46°54' W 002°08'0 0.0
2017-May-18 19:56N 46°54' W 002°08'0 0.0
2017-May-18 19:29N 46°54' W 002°08'0 0.0
2017-May-18 19:00N 46°54' W 002°08'0 0.0
2017-May-18 18:30N 46°54' W 002°08'0 0.0
2017-May-18 18:00N 46°54' W 002°08'0 0.0
2017-May-18 17:30N 46°54' W 002°08'0 0.0
2017-May-18 17:00N 46°54' W 002°08'0 0.0
2017-May-18 16:30N 46°54' W 002°08'0 0.0
2017-May-18 16:00N 46°54' W 002°08'0 0.0
2017-May-18 15:30N 46°54' W 002°08'0 0.0
2017-May-18 15:00N 46°54' W 002°08'0 0.0
2017-May-18 14:00N 46°54' W 002°08'0 0.0
2017-May-18 13:30N 46°54' W 002°08'0 0.0
2017-May-18 13:00N 46°54' W 002°08'0 0.0
2017-May-18 12:30N 46°54' W 002°08'0 0.0
2017-May-18 12:00N 46°54' W 002°08'0 0.0
2017-May-18 11:30N 46°54' W 002°08'0 0.0
2017-May-18 11:00N 46°54' W 002°08'0 0.0
2017-May-18 10:30N 46°54' W 002°08'4 1.0
2017-May-18 06:30N 46°51' W 002°13'4 8.1
2017-May-18 06:00N 46°54' W 002°08'0 0.0
2017-May-18 05:30N 46°54' W 002°08'0 0.0
2017-May-18 05:00N 46°54' W 002°08'0 0.0
2017-May-18 04:30N 46°54' W 002°08'0 0.0
2017-May-18 04:00N 46°54' W 002°08'0 0.0
2017-May-18 03:30N 46°54' W 002°08'0 0.0
2017-May-18 03:00N 46°54' W 002°08'0 0.0
2017-May-18 02:30N 46°54' W 002°08'0 0.0
2017-May-18 02:00N 46°54' W 002°08'0 0.0
2017-May-18 01:30N 46°54' W 002°08'0 0.0
2017-May-18 01:00N 46°54' W 002°08'0 0.0
2017-May-18 00:30N 46°54' W 002°08'0 0.0
2017-May-18 00:00N 46°54' W 002°08'0 0.0
2017-May-17 23:30N 46°54' W 002°08'0 0.0
2017-May-17 23:00N 46°54' W 002°08'0 0.0
2017-May-17 22:30N 46°54' W 002°08'0 0.0
2017-May-17 22:00N 46°54' W 002°08'0 0.0
2017-May-17 21:30N 46°54' W 002°08'0 0.0
2017-May-17 21:00N 46°54' W 002°08'0 0.0
2017-May-17 20:30N 46°54' W 002°08'0 0.0
2017-May-17 20:00N 46°54' W 002°08'0 0.0
2017-May-17 19:30N 46°54' W 002°08'0 0.0
2017-May-17 19:00N 46°54' W 002°08'0 0.0
2017-May-17 18:30N 46°54' W 002°08'0 0.0
2017-May-17 17:57N 46°54' W 002°08'0 0.0
2017-May-17 17:30N 46°54' W 002°08'0 0.0
2017-May-17 16:58N 46°54' W 002°08'0 0.0
2017-May-17 16:27N 46°54' W 002°08'0 0.0
2017-May-17 16:00N 46°54' W 002°08'0 0.0
2017-May-17 15:30N 46°54' W 002°08'0 0.0
2017-May-17 15:00N 46°54' W 002°08'0 0.0
2017-May-17 14:00N 46°54' W 002°08'0 0.0
2017-May-17 13:30N 46°54' W 002°08'0 0.0
2017-May-17 13:00N 46°54' W 002°08'0 0.0
2017-May-17 12:30N 46°54' W 002°08'0 0.0
2017-May-17 11:59N 46°54' W 002°08'0 0.0
2017-May-17 11:30N 46°54' W 002°08'0 0.0
2017-May-17 11:00N 46°54' W 002°08'0 0.0
2017-May-17 10:30N 46°54' W 002°08'0 0.0
2017-May-17 09:59N 46°54' W 002°08'2 3.8
2017-May-17 09:30N 46°53' W 002°11'612.7
2017-May-17 09:01N 46°48' W 002°16'6 2.2
2017-May-17 06:28N 46°44' W 002°21'613.1
2017-May-17 06:00N 46°49' W 002°16'612.3
2017-May-17 05:30N 46°54' W 002°10'1 2.9
2017-May-17 05:00N 46°54' W 002°08'0 0.0
2017-May-17 04:30N 46°54' W 002°08'0 0.0
2017-May-17 04:00N 46°54' W 002°08'0 0.0
2017-May-17 03:30N 46°54' W 002°08'0 0.0
2017-May-17 03:00N 46°54' W 002°08'0 0.0
2017-May-17 02:30N 46°54' W 002°08'0 0.0
2017-May-17 02:00N 46°54' W 002°08'0 0.0
2017-May-17 01:30N 46°54' W 002°08'0 0.0
2017-May-17 01:00N 46°54' W 002°08'0 0.0
2017-May-17 00:30N 46°54' W 002°08'0 0.0
2017-May-17 00:00N 46°54' W 002°08'0 0.0
2017-May-16 23:31N 46°54' W 002°08'0 0.0
2017-May-16 23:00N 46°54' W 002°08'0 0.0
2017-May-16 22:30N 46°54' W 002°08'0 0.0
2017-May-16 22:00N 46°54' W 002°08'0 0.0
2017-May-16 21:30N 46°54' W 002°08'0 0.0
2017-May-16 21:00N 46°54' W 002°08'0 0.0
2017-May-16 20:30N 46°54' W 002°08'0 0.0
2017-May-16 20:00N 46°54' W 002°08'0 0.0
2017-May-16 19:30N 46°54' W 002°08'0 0.0
2017-May-16 19:00N 46°54' W 002°08'0 0.0
2017-May-16 18:29N 46°54' W 002°08'0 0.0
2017-May-16 18:00N 46°54' W 002°08'13 1.1
2017-May-16 06:27N 46°44' W 002°21'612.9
2017-May-16 06:00N 46°48' W 002°16'612.9
2017-May-16 05:30N 46°54' W 002°11'2 3.2
2017-May-16 05:00N 46°54' W 002°08'0 0.0
2017-May-16 04:30N 46°54' W 002°08'0 0.0
2017-May-16 04:00N 46°54' W 002°08'0 0.0
2017-May-16 03:30N 46°54' W 002°08'0 0.0
2017-May-16 03:00N 46°54' W 002°08'0 0.0
2017-May-16 02:30N 46°54' W 002°08'0 0.0
2017-May-16 02:00N 46°54' W 002°08'0 0.0
2017-May-16 01:30N 46°54' W 002°08'0 0.0
2017-May-16 01:00N 46°54' W 002°08'0 0.0
2017-May-16 00:31N 46°54' W 002°08'0 0.0
2017-May-16 00:00N 46°54' W 002°08'0 0.0
2017-May-15 23:30N 46°54' W 002°08'0 0.0
2017-May-15 23:00N 46°54' W 002°08'0 0.0
2017-May-15 22:31N 46°54' W 002°08'0 0.0
2017-May-15 22:00N 46°54' W 002°08'0 0.0
2017-May-15 21:30N 46°54' W 002°08'0 0.0
2017-May-15 21:01N 46°54' W 002°08'0 0.0
2017-May-15 20:30N 46°54' W 002°08'0 0.0
2017-May-15 20:00N 46°54' W 002°08'0 0.0
2017-May-15 19:31N 46°54' W 002°08'0 0.0
2017-May-15 19:00N 46°54' W 002°08'0 0.0
2017-May-15 18:31N 46°54' W 002°08'0 0.0
2017-May-15 18:00N 46°54' W 002°08'0 0.0
2017-May-15 17:29N 46°54' W 002°08'0 0.0
2017-May-15 17:00N 46°54' W 002°08'4 7.7
2017-May-15 16:30N 46°52' W 002°13'713.9
2017-May-15 16:00N 46°46' W 002°19'  
Track history (hours):
 
Tides and Currents Weather Stations Pressure Air Temp Water Temp Dewpoint Dewpoint Depression Visibility Wind Speed Wind Dir Waves Ship Positions

Insula Oya 2

Last reported at 2017-May-24 04:00 UTC. Time now 2017-May-24 04:09 UTC.
Position N 46°51' W 002°13'.

Length 50 m; draft 2.4 m.

Type: Passenger vessel. MMSI: 227004900.

Date/timePositionNaut miles runAvg speedWind from/ knotsBaromVisibWave heightAir tempDewpointWater temp
2017-May-24 04:00N 46°51' W 002°13'713.1
2017-May-24 03:30N 46°46' W 002°19'3 0.3
2017-May-23 18:05N 46°44' W 002°21'0 0.1
2017-May-23 18:00N 46°44' W 002°21'0 0.0
2017-May-23 17:30N 46°44' W 002°21'0 0.0
2017-May-23 17:00N 46°44' W 002°21'0 0.0
2017-May-23 16:30N 46°44' W 002°21'0 0.0
2017-May-23 15:59N 46°44' W 002°21'0 0.0
2017-May-23 15:28N 46°44' W 002°21'5 9.9
2017-May-23 15:00N 46°47' W 002°17'813.6
2017-May-23 14:27N 46°54' W 002°11'2 1.7
2017-May-23 13:30N 46°54' W 002°08'0 0.0
2017-May-23 13:00N 46°54' W 002°08'0 0.0
2017-May-23 12:30N 46°54' W 002°08'5 0.5
2017-May-23 02:59N 46°50' W 002°14'510.6
2017-May-23 02:30N 46°54' W 002°08'0 0.0
2017-May-23 02:00N 46°54' W 002°08'0 0.0
2017-May-23 01:30N 46°54' W 002°08'0 0.0
2017-May-23 01:00N 46°54' W 002°08'0 0.0
2017-May-23 00:30N 46°54' W 002°08'0 0.0
2017-May-23 00:00N 46°54' W 002°08'0 0.0
2017-May-22 23:30N 46°54' W 002°08'0 0.0
2017-May-22 23:00N 46°54' W 002°08'0 0.0
2017-May-22 22:30N 46°54' W 002°08'0 0.0
2017-May-22 22:00N 46°54' W 002°08'0 0.0
2017-May-22 21:29N 46°54' W 002°08'0 0.0
2017-May-22 21:00N 46°54' W 002°08'0 0.0
2017-May-22 20:30N 46°54' W 002°08'0 0.0
2017-May-22 20:00N 46°54' W 002°08'0 0.0
2017-May-22 19:30N 46°54' W 002°08'0 0.0
2017-May-22 19:01N 46°54' W 002°08'0 0.0
2017-May-22 18:30N 46°54' W 002°08'0 0.0
2017-May-22 18:00N 46°54' W 002°08'0 0.0
2017-May-22 17:30N 46°54' W 002°08'0 0.0
2017-May-22 16:59N 46°54' W 002°08'0 0.0
2017-May-22 16:28N 46°54' W 002°08'0 0.0
2017-May-22 16:00N 46°54' W 002°08'0 0.0
2017-May-22 15:29N 46°54' W 002°08'0 0.0
2017-May-22 15:00N 46°54' W 002°08'0 0.0
2017-May-22 14:29N 46°54' W 002°08'13 0.5
2017-May-21 11:06N 46°44' W 002°21'9 0.3
2017-May-20 10:03N 46°51' W 002°14'113.3
2017-May-20 09:57N 46°52' W 002°13'3 8.0
2017-May-20 09:30N 46°54' W 002°08'0 0.0
2017-May-20 09:00N 46°54' W 002°08'0 0.0
2017-May-20 08:30N 46°54' W 002°08'0 0.0
2017-May-20 08:00N 46°54' W 002°08'0 0.0
2017-May-20 07:30N 46°54' W 002°08'0 0.0
2017-May-20 07:00N 46°54' W 002°08'0 0.0
2017-May-20 06:30N 46°54' W 002°08'0 0.0
2017-May-20 06:00N 46°54' W 002°08'0 0.0
2017-May-20 05:30N 46°54' W 002°08'0 0.0
2017-May-20 05:00N 46°54' W 002°08'0 0.0
2017-May-20 04:30N 46°54' W 002°08'0 0.0
2017-May-20 04:00N 46°54' W 002°08'0 0.0
2017-May-20 03:30N 46°54' W 002°08'0 0.0
2017-May-20 03:00N 46°54' W 002°08'0 0.0
2017-May-20 02:30N 46°54' W 002°08'0 0.0
2017-May-20 02:00N 46°54' W 002°08'0 0.0
2017-May-20 01:30N 46°54' W 002°08'0 0.0
2017-May-20 01:00N 46°54' W 002°08'0 0.0
2017-May-20 00:30N 46°54' W 002°08'0 0.0
2017-May-20 00:00N 46°54' W 002°08'0 0.0
2017-May-19 23:30N 46°54' W 002°08'0 0.0
2017-May-19 23:00N 46°54' W 002°08'0 0.0
2017-May-19 22:30N 46°54' W 002°08'0 0.0
2017-May-19 22:00N 46°54' W 002°08'0 0.0
2017-May-19 21:30N 46°54' W 002°08'0 0.0
2017-May-19 21:00N 46°54' W 002°08'0 0.0
2017-May-19 20:30N 46°54' W 002°08'0 0.0
2017-May-19 20:00N 46°54' W 002°08'0 0.0
2017-May-19 19:30N 46°54' W 002°08'0 0.0
2017-May-19 19:00N 46°54' W 002°08'0 0.0
2017-May-19 18:30N 46°54' W 002°08'0 0.0
2017-May-19 18:00N 46°54' W 002°08'0 0.0
2017-May-19 17:30N 46°54' W 002°08'0 0.0
2017-May-19 17:00N 46°54' W 002°08'0 0.0
2017-May-19 16:30N 46°54' W 002°08'0 0.0
2017-May-19 16:00N 46°54' W 002°08'0 0.0
2017-May-19 15:30N 46°54' W 002°08'0 0.0
2017-May-19 15:00N 46°54' W 002°08'0 0.0
2017-May-19 14:29N 46°54' W 002°08'0 0.0
2017-May-19 13:30N 46°54' W 002°08'0 0.0
2017-May-19 13:00N 46°54' W 002°08'0 0.0
2017-May-19 12:30N 46°54' W 002°08'0 0.0
2017-May-19 11:58N 46°54' W 002°08'2 4.2
2017-May-19 11:28N 46°53' W 002°11'0 0.0
2017-May-19 07:37N 46°53' W 002°11'1 9.5
2017-May-19 07:30N 46°54' W 002°10'1 2.4
2017-May-19 07:00N 46°54' W 002°08'0 0.0
2017-May-19 06:30N 46°54' W 002°08'0 0.0
2017-May-19 06:00N 46°54' W 002°08'0 0.0
2017-May-19 05:30N 46°54' W 002°08'0 0.0
2017-May-19 05:00N 46°54' W 002°08'0 0.0
2017-May-19 04:30N 46°54' W 002°08'0 0.0
2017-May-19 04:00N 46°54' W 002°08'0 0.0
2017-May-19 03:30N 46°54' W 002°08'0 0.0
2017-May-19 03:00N 46°54' W 002°08'0 0.0
2017-May-19 02:30N 46°54' W 002°08'0 0.0
2017-May-19 02:00N 46°54' W 002°08'0 0.0
2017-May-19 01:30N 46°54' W 002°08'0 0.0
2017-May-19 01:00N 46°54' W 002°08'0 0.0
2017-May-19 00:30N 46°54' W 002°08'0 0.0
2017-May-19 00:00N 46°54' W 002°08'0 0.0
2017-May-18 23:30N 46°54' W 002°08'0 0.0
2017-May-18 23:00N 46°54' W 002°08'0 0.0
2017-May-18 22:30N 46°54' W 002°08'0 0.0
2017-May-18 22:00N 46°54' W 002°08'0 0.0
2017-May-18 21:30N 46°54' W 002°08'0 0.0
2017-May-18 21:00N 46°54' W 002°08'0 0.0
2017-May-18 20:30N 46°54' W 002°08'0 0.0
2017-May-18 19:56N 46°54' W 002°08'0 0.0
2017-May-18 19:29N 46°54' W 002°08'0 0.0
2017-May-18 19:00N 46°54' W 002°08'0 0.0
2017-May-18 18:30N 46°54' W 002°08'0 0.0
2017-May-18 18:00N 46°54' W 002°08'0 0.0
2017-May-18 17:30N 46°54' W 002°08'0 0.0
2017-May-18 17:00N 46°54' W 002°08'0 0.0
2017-May-18 16:30N 46°54' W 002°08'0 0.0
2017-May-18 16:00N 46°54' W 002°08'0 0.0
2017-May-18 15:30N 46°54' W 002°08'0 0.0
2017-May-18 15:00N 46°54' W 002°08'0 0.0
2017-May-18 14:00N 46°54' W 002°08'0 0.0
2017-May-18 13:30N 46°54' W 002°08'0 0.0
2017-May-18 13:00N 46°54' W 002°08'0 0.0
2017-May-18 12:30N 46°54' W 002°08'0 0.0
2017-May-18 12:00N 46°54' W 002°08'0 0.0
2017-May-18 11:30N 46°54' W 002°08'0 0.0
2017-May-18 11:00N 46°54' W 002°08'0 0.0
2017-May-18 10:30N 46°54' W 002°08'4 1.0
2017-May-18 06:30N 46°51' W 002°13'4 8.1
2017-May-18 06:00N 46°54' W 002°08'0 0.0
2017-May-18 05:30N 46°54' W 002°08'0 0.0
2017-May-18 05:00N 46°54' W 002°08'0 0.0
2017-May-18 04:30N 46°54' W 002°08'0 0.0
2017-May-18 04:00N 46°54' W 002°08'0 0.0
2017-May-18 03:30N 46°54' W 002°08'0 0.0
2017-May-18 03:00N 46°54' W 002°08'0 0.0
2017-May-18 02:30N 46°54' W 002°08'0 0.0
2017-May-18 02:00N 46°54' W 002°08'0 0.0
2017-May-18 01:30N 46°54' W 002°08'0 0.0
2017-May-18 01:00N 46°54' W 002°08'0 0.0
2017-May-18 00:30N 46°54' W 002°08'0 0.0
2017-May-18 00:00N 46°54' W 002°08'0 0.0
2017-May-17 23:30N 46°54' W 002°08'0 0.0
2017-May-17 23:00N 46°54' W 002°08'0 0.0
2017-May-17 22:30N 46°54' W 002°08'0 0.0
2017-May-17 22:00N 46°54' W 002°08'0 0.0
2017-May-17 21:30N 46°54' W 002°08'0 0.0
2017-May-17 21:00N 46°54' W 002°08'0 0.0
2017-May-17 20:30N 46°54' W 002°08'0 0.0
2017-May-17 20:00N 46°54' W 002°08'0 0.0
2017-May-17 19:30N 46°54' W 002°08'0 0.0
2017-May-17 19:00N 46°54' W 002°08'0 0.0
2017-May-17 18:30N 46°54' W 002°08'0 0.0
2017-May-17 17:57N 46°54' W 002°08'0 0.0
2017-May-17 17:30N 46°54' W 002°08'0 0.0
2017-May-17 16:58N 46°54' W 002°08'0 0.0
2017-May-17 16:27N 46°54' W 002°08'0 0.0
2017-May-17 16:00N 46°54' W 002°08'0 0.0
2017-May-17 15:30N 46°54' W 002°08'0 0.0
2017-May-17 15:00N 46°54' W 002°08'0 0.0
2017-May-17 14:00N 46°54' W 002°08'0 0.0
2017-May-17 13:30N 46°54' W 002°08'0 0.0
2017-May-17 13:00N 46°54' W 002°08'0 0.0
2017-May-17 12:30N 46°54' W 002°08'0 0.0
2017-May-17 11:59N 46°54' W 002°08'0 0.0
2017-May-17 11:30N 46°54' W 002°08'0 0.0
2017-May-17 11:00N 46°54' W 002°08'0 0.0
2017-May-17 10:30N 46°54' W 002°08'0 0.0
2017-May-17 09:59N 46°54' W 002°08'2 3.8
2017-May-17 09:30N 46°53' W 002°11'612.7
2017-May-17 09:01N 46°48' W 002°16'6 2.2
2017-May-17 06:28N 46°44' W 002°21'613.1
2017-May-17 06:00N 46°49' W 002°16'612.3
2017-May-17 05:30N 46°54' W 002°10'1 2.9
2017-May-17 05:00N 46°54' W 002°08'0 0.0
2017-May-17 04:30N 46°54' W 002°08'0 0.0
2017-May-17 04:00N 46°54' W 002°08'0 0.0
2017-May-17 03:30N 46°54' W 002°08'0 0.0
2017-May-17 03:00N 46°54' W 002°08'0 0.0
2017-May-17 02:30N 46°54' W 002°08'0 0.0
2017-May-17 02:00N 46°54' W 002°08'0 0.0
2017-May-17 01:30N 46°54' W 002°08'0 0.0
2017-May-17 01:00N 46°54' W 002°08'0 0.0
2017-May-17 00:30N 46°54' W 002°08'0 0.0
2017-May-17 00:00N 46°54' W 002°08'0 0.0
2017-May-16 23:31N 46°54' W 002°08'0 0.0
2017-May-16 23:00N 46°54' W 002°08'0 0.0
2017-May-16 22:30N 46°54' W 002°08'0 0.0
2017-May-16 22:00N 46°54' W 002°08'0 0.0
2017-May-16 21:30N 46°54' W 002°08'0 0.0
2017-May-16 21:00N 46°54' W 002°08'0 0.0
2017-May-16 20:30N 46°54' W 002°08'0 0.0
2017-May-16 20:00N 46°54' W 002°08'0 0.0
2017-May-16 19:30N 46°54' W 002°08'0 0.0
2017-May-16 19:00N 46°54' W 002°08'0 0.0
2017-May-16 18:29N 46°54' W 002°08'0 0.0
2017-May-16 18:00N 46°54' W 002°08'13 1.1
2017-May-16 06:27N 46°44' W 002°21'612.9
2017-May-16 06:00N 46°48' W 002°16'612.9
2017-May-16 05:30N 46°54' W 002°11'2 3.2
2017-May-16 05:00N 46°54' W 002°08'0 0.0
2017-May-16 04:30N 46°54' W 002°08'0 0.0
2017-May-16 04:00N 46°54' W 002°08'0 0.0
2017-May-16 03:30N 46°54' W 002°08'0 0.0
2017-May-16 03:00N 46°54' W 002°08'0 0.0
2017-May-16 02:30N 46°54' W 002°08'0 0.0
2017-May-16 02:00N 46°54' W 002°08'0 0.0
2017-May-16 01:30N 46°54' W 002°08'0 0.0
2017-May-16 01:00N 46°54' W 002°08'0 0.0
2017-May-16 00:31N 46°54' W 002°08'0 0.0
2017-May-16 00:00N 46°54' W 002°08'0 0.0
2017-May-15 23:30N 46°54' W 002°08'0 0.0
2017-May-15 23:00N 46°54' W 002°08'0 0.0
2017-May-15 22:31N 46°54' W 002°08'0 0.0
2017-May-15 22:00N 46°54' W 002°08'0 0.0
2017-May-15 21:30N 46°54' W 002°08'0 0.0
2017-May-15 21:01N 46°54' W 002°08'0 0.0
2017-May-15 20:30N 46°54' W 002°08'0 0.0
2017-May-15 20:00N 46°54' W 002°08'0 0.0
2017-May-15 19:31N 46°54' W 002°08'0 0.0
2017-May-15 19:00N 46°54' W 002°08'0 0.0
2017-May-15 18:31N 46°54' W 002°08'0 0.0
2017-May-15 18:00N 46°54' W 002°08'0 0.0
2017-May-15 17:29N 46°54' W 002°08'0 0.0
2017-May-15 17:00N 46°54' W 002°08'4 7.7
2017-May-15 16:30N 46°52' W 002°13'713.9
2017-May-15 16:00N 46°46' W 002°19'  

Dump ship's entire track history